Airport View

Enter AWOS ICAO identifier for current METAR.

ex. KFNL

KM25 190620Z AUTO 35009G15KT 5SM OVC008 08/07 A2965 RMK AO2 P0002 PWINO

19 Apr 2019 06:18

Frequency: 120.625

Phone: 270-247-2094

Other Area AWOS: KCEY - KPAH - KM30 - KPHT

TAF AMD KPAH 190059Z 1901/1924 01012KT 4SM -SHRA BR SCT009 OVC013 TEMPO 1901/1903 BKN009 FM190400 35015G24KT 5SM -SHRA BR OVC009 FM190700 34015G24KT 6SM -SHRA BR FEW009 OVC011 FM191000 34014G23KT P6SM VCSH OVC011 FM191900 34015G25KT P6SM -SHRA OVC016